createdAt,value
2019-04-06T00:01:16.212Z,99.90
2019-04-06T00:03:46.661Z,99.90
2019-04-06T00:06:17.088Z,99.90
2019-04-06T00:08:47.537Z,99.90
2019-04-06T00:11:19.249Z,99.90
2019-04-06T00:13:49.702Z,99.90
2019-04-06T00:16:20.181Z,99.90
2019-04-06T00:18:50.565Z,99.90
2019-04-06T00:21:21.139Z,99.90
2019-04-06T00:23:52.166Z,99.90
2019-04-06T00:26:23.637Z,99.90
2019-04-06T00:28:54.287Z,99.90
2019-04-06T00:31:37.824Z,99.90
2019-04-06T00:34:08.693Z,99.90
2019-04-06T00:36:39.010Z,99.90
2019-04-06T00:39:09.561Z,99.90
2019-04-06T00:41:40.161Z,99.90
2019-04-06T00:44:10.585Z,99.90
2019-04-06T00:46:41.080Z,99.90
2019-04-06T00:49:11.594Z,99.90
2019-04-06T00:51:42.466Z,99.90
2019-04-06T00:54:12.937Z,99.90
2019-04-06T00:56:43.409Z,99.90
2019-04-06T00:59:13.741Z,99.90
2019-04-06T01:01:44.339Z,99.90
2019-04-06T01:04:16.045Z,99.90
2019-04-06T01:06:46.635Z,99.90
2019-04-06T01:09:17.220Z,99.90
2019-04-06T01:11:47.629Z,99.90
2019-04-06T01:14:18.505Z,99.90
2019-04-06T01:16:49.034Z,99.90
2019-04-06T01:19:19.552Z,99.90
2019-04-06T01:21:51.281Z,99.90
2019-04-06T01:24:21.706Z,99.90
2019-04-06T01:26:52.216Z,99.90
2019-04-06T01:29:22.815Z,99.90
2019-04-06T01:31:53.322Z,99.90
2019-04-06T01:34:23.725Z,99.90
2019-04-06T01:36:54.155Z,99.90
2019-04-06T01:39:24.694Z,99.90
2019-04-06T01:41:55.274Z,99.90
2019-04-06T01:44:27.235Z,99.90
2019-04-06T01:46:58.763Z,99.90
2019-04-06T01:49:29.290Z,99.90
2019-04-06T01:51:59.718Z,99.90
2019-04-06T01:54:30.412Z,99.90
2019-04-06T01:57:01.068Z,99.90
2019-04-06T01:59:31.505Z,99.90
2019-04-06T02:02:08.374Z,99.90
2019-04-06T02:04:38.878Z,99.90
2019-04-06T02:07:09.102Z,99.90
2019-04-06T02:09:39.663Z,99.90
2019-04-06T02:12:10.111Z,99.90
2019-04-06T02:14:40.542Z,99.90
2019-04-06T02:17:11.281Z,99.90
2019-04-06T02:19:42.230Z,99.90
2019-04-06T02:22:12.740Z,99.90
2019-04-06T02:24:43.244Z,99.90
2019-04-06T02:27:13.989Z,99.90
2019-04-06T02:29:44.490Z,99.90
2019-04-06T02:32:27.477Z,99.90
2019-04-06T02:35:13.742Z,99.90
2019-04-06T02:38:06.351Z,99.90
2019-04-06T02:40:47.763Z,99.90
2019-04-06T02:43:20.936Z,99.90
2019-04-06T02:45:51.658Z,99.90
2019-04-06T02:48:22.145Z,99.90
2019-04-06T02:50:55.895Z,99.90
2019-04-06T02:53:26.555Z,99.90
2019-04-06T02:55:57.008Z,99.90
2019-04-06T02:58:27.755Z,99.90
2019-04-06T03:00:58.228Z,99.90
2019-04-06T03:03:28.631Z,99.90
2019-04-06T03:05:59.121Z,99.90
2019-04-06T03:08:29.603Z,99.90
2019-04-06T03:11:00.598Z,99.90
2019-04-06T03:13:32.093Z,99.90
2019-04-06T03:16:03.321Z,99.90
2019-04-06T03:18:33.661Z,99.90
2019-04-06T03:21:04.579Z,99.90
2019-04-06T03:23:49.208Z,99.90
2019-04-06T03:26:08.824Z,99.90
2019-04-06T03:28:39.268Z,99.90
2019-04-06T03:31:09.969Z,99.90
2019-04-06T03:33:41.112Z,99.90
2019-04-06T03:36:11.656Z,99.90
2019-04-06T03:38:42.228Z,99.90
2019-04-06T03:41:13.238Z,99.90
2019-04-06T03:43:44.788Z,99.90
2019-04-06T03:46:16.353Z,99.90
2019-04-06T03:48:46.841Z,99.90
2019-04-06T03:51:18.287Z,99.90
2019-04-06T03:53:48.708Z,99.90
2019-04-06T03:56:19.181Z,99.90
2019-04-06T03:58:52.139Z,99.90
2019-04-06T04:01:22.443Z,99.90
2019-04-06T04:03:52.992Z,99.90
2019-04-06T04:06:23.568Z,99.90
2019-04-06T04:08:53.790Z,99.90
2019-04-06T04:11:24.277Z,99.90
2019-04-06T04:13:55.267Z,99.90
2019-04-06T04:16:26.218Z,99.90
2019-04-06T04:18:56.653Z,99.90
2019-04-06T04:21:27.059Z,99.90
2019-04-06T04:23:57.533Z,99.90
2019-04-06T04:26:28.300Z,99.90
2019-04-06T04:28:58.778Z,99.90
2019-04-06T04:31:29.434Z,99.90
2019-04-06T04:34:00.189Z,99.90
2019-04-06T04:36:31.080Z,99.90
2019-04-06T04:39:01.788Z,99.90
2019-04-06T04:41:32.723Z,99.90
2019-04-06T04:44:03.035Z,99.90
2019-04-06T04:46:33.426Z,99.90
2019-04-06T04:49:06.721Z,99.90
2019-04-06T04:51:37.189Z,99.90
2019-04-06T04:54:07.561Z,99.90
2019-04-06T04:56:37.922Z,99.90
2019-04-06T04:59:08.454Z,99.90
2019-04-06T05:01:39.270Z,99.90
2019-04-06T05:04:09.819Z,99.90
2019-04-06T05:06:40.245Z,99.90
2019-04-06T05:09:10.566Z,99.90
2019-04-06T05:11:40.923Z,99.90
2019-04-06T05:14:46.835Z,99.90
2019-04-06T05:17:17.520Z,99.90
2019-04-06T05:19:47.941Z,99.90
2019-04-06T05:22:18.533Z,99.90
2019-04-06T05:24:49.038Z,99.90
2019-04-06T05:27:19.701Z,99.90
2019-04-06T05:29:50.176Z,99.90
2019-04-06T05:32:20.602Z,99.90
2019-04-06T05:34:51.547Z,99.90
2019-04-06T05:37:22.857Z,99.90
2019-04-06T05:39:53.325Z,99.90
2019-04-06T05:42:24.225Z,99.90
2019-04-06T05:44:55.009Z,99.90
2019-04-06T05:47:25.531Z,99.90
2019-04-06T05:49:56.055Z,99.90
2019-04-06T05:52:26.533Z,99.90
2019-04-06T05:54:56.900Z,99.90
2019-04-06T05:57:31.614Z,99.90
2019-04-06T05:59:59.845Z,99.90
2019-04-06T06:02:30.510Z,99.90
2019-04-06T06:05:01.419Z,99.90
2019-04-06T06:07:31.976Z,99.90
2019-04-06T06:10:02.584Z,99.90
2019-04-06T06:12:33.329Z,99.90
2019-04-06T06:15:03.962Z,99.90
2019-04-06T06:17:34.517Z,99.90
2019-04-06T06:20:05.385Z,99.90
2019-04-06T06:22:35.726Z,99.90
2019-04-06T06:25:07.784Z,99.90
2019-04-06T06:27:38.421Z,99.90
2019-04-06T06:30:09.188Z,99.90
2019-04-06T06:32:39.532Z,99.90
2019-04-06T06:35:10.272Z,99.90
2019-04-06T06:37:41.880Z,99.90
2019-04-06T06:40:12.413Z,99.90
2019-04-06T06:42:45.479Z,99.90
2019-04-06T06:45:16.297Z,99.90
2019-04-06T06:47:47.577Z,99.90
2019-04-06T06:50:18.178Z,99.90
2019-04-06T06:52:48.595Z,99.90
2019-04-06T06:55:19.551Z,99.90
2019-04-06T06:57:50.151Z,99.90
2019-04-06T07:00:20.682Z,99.90
2019-04-06T07:02:51.117Z,99.90
2019-04-06T07:05:21.401Z,99.90
2019-04-06T07:07:51.834Z,99.90
2019-04-06T07:10:23.272Z,99.90
2019-04-06T07:12:53.672Z,99.90
2019-04-06T07:15:24.248Z,99.60
2019-04-06T07:17:54.598Z,99.40
2019-04-06T07:20:25.166Z,99.60
2019-04-06T07:22:55.927Z,99.20
2019-04-06T07:25:26.736Z,99.30
2019-04-06T07:27:57.085Z,98.90
2019-04-06T07:30:27.401Z,98.60
2019-04-06T07:32:57.847Z,98.60
2019-04-06T07:35:28.696Z,98.50
2019-04-06T07:37:59.219Z,98.00
2019-04-06T07:40:29.816Z,97.30
2019-04-06T07:43:00.324Z,97.10
2019-04-06T07:45:30.710Z,97.20
2019-04-06T07:48:01.096Z,97.30
2019-04-06T07:50:31.501Z,97.10
2019-04-06T07:53:01.931Z,97.00
2019-04-06T07:55:32.449Z,96.50
2019-04-06T07:58:02.922Z,96.40
2019-04-06T08:00:33.356Z,94.10
2019-04-06T08:03:03.790Z,93.70
2019-04-06T08:05:34.483Z,93.30
2019-04-06T08:08:05.284Z,93.60
2019-04-06T08:10:35.907Z,94.30
2019-04-06T08:13:06.536Z,92.80
2019-04-06T08:15:37.782Z,93.40
2019-04-06T08:18:08.430Z,92.80
2019-04-06T08:20:39.038Z,91.40
2019-04-06T08:23:09.382Z,91.50
2019-04-06T08:25:40.036Z,91.90
2019-04-06T08:28:10.738Z,90.10
2019-04-06T08:30:45.972Z,89.40
2019-04-06T08:33:13.253Z,87.60
2019-04-06T08:35:43.673Z,89.60
2019-04-06T08:38:14.114Z,85.30
2019-04-06T08:40:44.621Z,84.10
2019-04-06T08:43:15.306Z,84.10
2019-04-06T08:45:46.014Z,80.70
2019-04-06T08:48:16.450Z,77.50
2019-04-06T08:50:46.966Z,77.80
2019-04-06T08:53:17.582Z,73.60
2019-04-06T08:55:48.022Z,70.80
2019-04-06T08:58:19.108Z,68.60
2019-04-06T09:00:49.585Z,68.70
2019-04-06T09:03:20.160Z,66.50
2019-04-06T09:05:50.418Z,67.40
2019-04-06T09:08:20.606Z,64.80
2019-04-06T09:10:51.391Z,61.50
2019-04-06T09:13:21.607Z,59.10
2019-04-06T09:15:52.050Z,60.00
2019-04-06T09:18:22.699Z,61.00
2019-04-06T09:20:53.095Z,64.00
2019-04-06T09:23:23.727Z,64.50
2019-04-06T09:25:54.323Z,65.00
2019-04-06T09:28:25.373Z,63.40
2019-04-06T09:30:55.835Z,64.10
2019-04-06T09:33:26.566Z,62.60
2019-04-06T09:35:56.946Z,64.10
2019-04-06T09:38:27.479Z,65.20
2019-04-06T09:40:58.138Z,65.60
2019-04-06T09:43:28.798Z,59.60
2019-04-06T09:46:18.240Z,60.50
2019-04-06T09:49:13.823Z,61.80
2019-04-06T09:52:08.762Z,61.80
2019-04-06T09:57:47.163Z,62.00
2019-04-06T10:00:35.318Z,60.80
2019-04-06T10:03:24.400Z,61.70
2019-04-06T10:06:19.548Z,61.20
2019-04-06T10:09:13.977Z,61.80
2019-04-06T10:12:04.650Z,61.70
2019-04-06T10:14:47.522Z,62.40
2019-04-06T10:17:52.227Z,63.60
2019-04-06T10:20:44.900Z,58.80
2019-04-06T10:23:43.225Z,58.70
2019-04-06T10:26:38.393Z,57.90
2019-04-06T10:29:18.227Z,57.80
2019-04-06T10:32:07.945Z,58.90
2019-04-06T10:35:01.829Z,57.40
2019-04-06T10:37:56.415Z,56.00
2019-04-06T10:40:55.531Z,55.80
2019-04-06T10:43:37.737Z,56.20
2019-04-06T10:46:19.493Z,57.80
2019-04-06T10:49:01.677Z,58.30
2019-04-06T10:51:49.294Z,58.70
2019-04-06T10:54:57.092Z,58.80
2019-04-06T10:57:43.905Z,57.40
2019-04-06T11:00:25.720Z,56.20
2019-04-06T11:03:16.115Z,55.40
2019-04-06T11:05:55.493Z,55.10
2019-04-06T11:08:45.003Z,55.10
2019-04-06T11:11:37.369Z,54.20
2019-04-06T11:14:44.627Z,55.50
2019-04-06T11:17:27.580Z,54.50
2019-04-06T11:20:35.060Z,54.50
2019-04-06T11:23:39.275Z,53.20
2019-04-06T11:26:31.279Z,54.00
2019-04-06T11:29:35.420Z,53.50
2019-04-06T11:32:23.766Z,51.20
2019-04-06T11:35:22.073Z,51.20
2019-04-06T11:38:07.649Z,53.00
2019-04-06T11:40:55.488Z,52.70
2019-04-06T11:43:32.118Z,52.20
2019-04-06T11:46:20.984Z,52.30
2019-04-06T11:48:58.185Z,50.60
2019-04-06T11:51:50.554Z,49.40
2019-04-06T11:54:55.548Z,50.10
2019-04-06T11:57:48.143Z,49.80
2019-04-06T12:00:51.056Z,49.50
2019-04-06T12:03:47.304Z,48.30
2019-04-06T12:06:25.771Z,48.10
2019-04-06T12:09:06.049Z,48.20
2019-04-06T12:11:58.394Z,49.10
2019-04-06T12:14:33.408Z,51.40
2019-04-06T12:17:22.680Z,51.30
2019-04-06T12:20:06.727Z,51.90
2019-04-06T12:22:55.505Z,54.90
2019-04-06T12:25:48.181Z,54.70
2019-04-06T12:28:44.236Z,55.90
2019-04-06T12:31:39.570Z,55.00
2019-04-06T12:34:34.979Z,55.90
2019-04-06T12:37:19.643Z,56.50
2019-04-06T12:40:07.576Z,57.60
2019-04-06T12:42:59.918Z,58.10
2019-04-06T12:45:59.634Z,59.50
2019-04-06T12:48:52.666Z,57.70
2019-04-06T12:51:35.403Z,52.60
2019-04-06T12:54:27.822Z,53.60
2019-04-06T12:57:14.120Z,54.70
2019-04-06T12:59:58.685Z,56.30
2019-04-06T13:02:41.723Z,56.20
2019-04-06T13:05:40.214Z,57.60
2019-04-06T13:08:35.935Z,62.50
2019-04-06T13:11:34.242Z,63.80
2019-04-06T13:14:12.217Z,64.30
2019-04-06T13:17:14.089Z,60.00
2019-04-06T13:20:01.642Z,58.70
2019-04-06T13:22:46.795Z,60.20
2019-04-06T13:25:36.132Z,58.90
2019-04-06T13:28:16.290Z,61.70
2019-04-06T13:31:03.320Z,65.00
2019-04-06T13:34:03.038Z,68.30
2019-04-06T13:36:58.427Z,69.00
2019-04-06T13:39:56.736Z,67.50
2019-04-06T13:42:45.999Z,70.70
2019-04-06T13:45:35.140Z,68.90
2019-04-06T13:48:42.431Z,67.70
2019-04-06T13:52:07.465Z,65.90
2019-04-06T13:55:03.179Z,64.20
2019-04-06T13:57:57.652Z,65.80
2019-04-06T14:00:49.714Z,66.30
2019-04-06T14:03:27.890Z,63.70
2019-04-06T14:06:17.608Z,63.80
2019-04-06T14:09:12.142Z,64.90
2019-04-06T14:12:00.950Z,61.10
2019-04-06T14:14:50.323Z,63.70
2019-04-06T14:17:39.588Z,66.90
2019-04-06T14:20:38.484Z,65.00
2019-04-06T14:23:40.220Z,64.50
2019-04-06T14:26:28.373Z,64.50
2019-04-06T14:29:09.740Z,64.00
2019-04-06T14:31:57.918Z,65.60
2019-04-06T14:34:46.166Z,63.60
2019-04-06T14:37:40.857Z,61.50
2019-04-06T14:40:30.415Z,59.00
2019-04-06T14:43:34.731Z,57.10
2019-04-06T14:46:37.631Z,58.20
2019-04-06T14:49:30.867Z,58.60
2019-04-06T14:52:05.382Z,56.80
2019-04-06T14:54:43.835Z,56.20
2019-04-06T14:57:28.832Z,56.00
2019-04-06T15:00:33.211Z,58.00
2019-04-06T15:03:21.489Z,57.50
2019-04-06T15:06:11.661Z,57.90
2019-04-06T15:09:01.145Z,58.70
2019-04-06T15:11:47.234Z,59.90
2019-04-06T15:14:36.504Z,61.90
2019-04-06T15:17:38.023Z,61.50
2019-04-06T15:20:23.340Z,64.40
2019-04-06T15:23:58.173Z,65.90
2019-04-06T15:27:03.389Z,65.70
2019-04-06T15:29:54.172Z,65.80
2019-04-06T15:32:43.592Z,67.50
2019-04-06T15:35:33.134Z,68.50
2019-04-06T15:38:34.889Z,68.20
2019-04-06T15:41:30.351Z,68.40
2019-04-06T15:44:19.815Z,71.20
2019-04-06T15:47:09.069Z,73.70
2019-04-06T15:49:49.318Z,70.30
2019-04-06T15:52:41.658Z,69.40
2019-04-06T15:55:26.762Z,71.50
2019-04-06T15:58:16.543Z,71.70
2019-04-06T16:01:01.481Z,71.20
2019-04-06T16:03:57.120Z,74.00
2019-04-06T16:06:55.609Z,74.00
2019-04-06T16:09:42.248Z,74.70
2019-04-06T16:12:26.239Z,74.30
2019-04-06T16:15:18.474Z,74.30
2019-04-06T16:18:08.176Z,73.70
2019-04-06T16:21:00.777Z,75.20
2019-04-06T16:24:00.961Z,78.70
2019-04-06T16:26:36.190Z,81.60
2019-04-06T16:29:38.051Z,81.40
2019-04-06T16:32:33.520Z,80.70
2019-04-06T16:35:21.402Z,76.10
2019-04-06T16:38:13.743Z,76.50
2019-04-06T16:41:09.259Z,78.30
2019-04-06T16:43:57.379Z,79.10
2019-04-06T16:46:52.914Z,80.80
2019-04-06T16:49:54.677Z,81.30
2019-04-06T16:52:44.002Z,79.40
2019-04-06T16:55:32.845Z,79.00
2019-04-06T16:58:19.488Z,79.30
2019-04-06T17:01:09.728Z,81.00
2019-04-06T17:04:02.281Z,82.40
2019-04-06T17:06:41.177Z,83.80
2019-04-06T17:09:39.938Z,84.10
2019-04-06T17:12:29.351Z,83.60
2019-04-06T17:15:25.570Z,82.10
2019-04-06T17:18:21.103Z,80.90
2019-04-06T17:21:12.776Z,82.10
2019-04-06T17:23:50.518Z,82.50
2019-04-06T17:26:49.228Z,81.40
2019-04-06T17:29:27.102Z,82.20
2019-04-06T17:32:15.629Z,82.80
2019-04-06T17:35:00.597Z,83.00
2019-04-06T17:37:50.316Z,84.60
2019-04-06T17:40:29.911Z,84.10
2019-04-06T17:43:17.095Z,84.80
2019-04-06T17:46:15.546Z,85.10
2019-04-06T17:49:06.007Z,85.70
2019-04-06T17:51:55.493Z,85.40
2019-04-06T17:54:47.860Z,86.30
2019-04-06T17:57:40.199Z,87.30
2019-04-06T18:00:48.354Z,86.10
2019-04-06T18:03:59.963Z,86.50
2019-04-06T18:06:51.016Z,87.00
2019-04-06T18:09:35.044Z,85.90
2019-04-06T18:12:24.290Z,86.20
2019-04-06T18:14:55.159Z,87.70
2019-04-06T18:17:25.542Z,87.80
2019-04-06T18:19:56.429Z,89.10
2019-04-06T18:22:26.722Z,88.80
2019-04-06T18:24:57.275Z,89.40
2019-04-06T18:27:28.120Z,89.90
2019-04-06T18:29:58.480Z,90.20
2019-04-06T18:32:57.854Z,90.50
2019-04-06T18:35:20.745Z,90.70
2019-04-06T18:38:13.597Z,91.00
2019-04-06T18:40:44.151Z,91.20
2019-04-06T18:43:14.550Z,91.70
2019-04-06T18:45:44.986Z,91.80
2019-04-06T18:48:15.505Z,91.90
2019-04-06T18:50:46.280Z,92.10
2019-04-06T18:53:17.242Z,92.40
2019-04-06T18:55:48.154Z,92.50
2019-04-06T18:58:19.201Z,92.70
2019-04-06T19:00:49.763Z,93.00
2019-04-06T19:03:20.277Z,93.30
2019-04-06T19:05:51.228Z,93.50
2019-04-06T19:08:21.728Z,94.00
2019-04-06T19:10:52.644Z,94.10
2019-04-06T19:13:23.310Z,94.40
2019-04-06T19:15:56.822Z,94.50
2019-04-06T19:18:27.122Z,94.60
2019-04-06T19:20:58.124Z,94.90
2019-04-06T19:23:28.529Z,95.20
2019-04-06T19:25:59.076Z,95.40
2019-04-06T19:28:29.466Z,95.60
2019-04-06T19:31:00.292Z,96.00
2019-04-06T19:33:30.746Z,96.30
2019-04-06T19:36:01.372Z,96.40
2019-04-06T19:38:31.912Z,96.50
2019-04-06T19:41:03.551Z,96.60
2019-04-06T19:43:34.269Z,96.70
2019-04-06T19:46:04.819Z,96.70
2019-04-06T19:48:35.994Z,96.80
2019-04-06T19:51:06.912Z,97.00
2019-04-06T19:53:37.873Z,97.10
2019-04-06T19:56:08.712Z,97.20
2019-04-06T19:58:39.116Z,97.40
2019-04-06T20:01:09.761Z,97.40
2019-04-06T20:03:40.573Z,97.50
2019-04-06T20:06:10.968Z,97.50
2019-04-06T20:08:41.639Z,97.60
2019-04-06T20:11:12.193Z,97.70
2019-04-06T20:13:42.784Z,97.70
2019-04-06T20:16:13.723Z,97.90
2019-04-06T20:18:44.433Z,98.00
2019-04-06T20:21:15.250Z,98.10
2019-04-06T20:23:45.797Z,98.30
2019-04-06T20:26:16.264Z,98.30
2019-04-06T20:28:46.914Z,98.50
2019-04-06T20:31:18.439Z,98.70
2019-04-06T20:33:51.925Z,99.00
2019-04-06T20:36:21.199Z,99.20
2019-04-06T20:38:51.842Z,99.30
2019-04-06T20:41:22.308Z,99.50
2019-04-06T20:43:52.814Z,99.90
2019-04-06T20:46:23.479Z,99.90
2019-04-06T20:48:54.158Z,99.90
2019-04-06T20:51:24.571Z,99.90
2019-04-06T20:53:56.346Z,99.90
2019-04-06T20:56:27.391Z,99.90
2019-04-06T20:58:59.661Z,99.90
2019-04-06T21:01:30.169Z,99.90
2019-04-06T21:04:02.837Z,99.90
2019-04-06T21:06:35.097Z,99.90
2019-04-06T21:09:12.888Z,99.90
2019-04-06T21:11:43.403Z,99.90
2019-04-06T21:14:14.820Z,99.90
2019-04-06T21:16:45.655Z,99.90
2019-04-06T21:19:16.645Z,99.90
2019-04-06T21:21:47.119Z,99.90
2019-04-06T21:24:20.899Z,99.90
2019-04-06T21:26:54.676Z,99.90
2019-04-06T21:29:25.247Z,99.90
2019-04-06T21:31:56.226Z,99.90
2019-04-06T21:34:27.126Z,99.90
2019-04-06T21:36:57.806Z,99.90
2019-04-06T21:39:28.176Z,99.90
2019-04-06T21:41:58.581Z,99.90
2019-04-06T21:44:29.010Z,99.90
2019-04-06T21:47:00.004Z,99.90
2019-04-06T21:49:30.449Z,99.90
2019-04-06T21:52:01.025Z,99.90
2019-04-06T21:54:31.566Z,99.90
2019-04-06T21:57:01.947Z,99.90
2019-04-06T21:59:32.499Z,99.90
2019-04-06T22:02:03.374Z,99.90
2019-04-06T22:04:33.838Z,99.90
2019-04-06T22:07:04.711Z,99.90
2019-04-06T22:09:35.467Z,99.90
2019-04-06T22:12:06.124Z,99.90
2019-04-06T22:14:38.400Z,99.90
2019-04-06T22:17:09.763Z,99.90
2019-04-06T22:19:40.892Z,99.90
2019-04-06T22:22:11.784Z,99.90
2019-04-06T22:24:42.353Z,99.90
2019-04-06T22:27:13.154Z,99.90
2019-04-06T22:29:43.664Z,99.90
2019-04-06T22:32:15.301Z,99.90
2019-04-06T22:34:48.667Z,99.90
2019-04-06T22:37:19.590Z,99.90
2019-04-06T22:39:50.552Z,99.90
2019-04-06T22:42:21.054Z,99.90
2019-04-06T22:44:51.408Z,99.90
2019-04-06T22:47:21.958Z,99.90
2019-04-06T22:49:52.427Z,99.90
2019-04-06T22:52:23.057Z,99.90
2019-04-06T22:54:54.159Z,99.90
2019-04-06T22:57:25.064Z,99.90
2019-04-06T22:59:55.412Z,99.90
2019-04-06T23:02:28.135Z,99.90
2019-04-06T23:05:16.306Z,99.90
2019-04-06T23:07:46.952Z,99.90
2019-04-06T23:10:18.454Z,99.90
2019-04-06T23:12:49.639Z,99.90
2019-04-06T23:15:19.976Z,99.80
2019-04-06T23:17:51.123Z,99.00
2019-04-06T23:20:21.812Z,98.30
2019-04-06T23:22:52.596Z,97.50
2019-04-06T23:25:23.157Z,97.00
2019-04-06T23:27:53.632Z,96.20
2019-04-06T23:30:24.093Z,96.00
2019-04-06T23:32:55.034Z,95.60
2019-04-06T23:35:25.614Z,95.40
2019-04-06T23:37:56.234Z,94.70
2019-04-06T23:40:27.204Z,94.60
2019-04-06T23:42:58.077Z,94.70
2019-04-06T23:45:28.869Z,94.20
2019-04-06T23:47:59.432Z,92.80
2019-04-06T23:50:29.795Z,92.50
2019-04-06T23:53:00.709Z,92.70
2019-04-06T23:55:31.940Z,92.20
2019-04-06T23:58:02.880Z,92.00
